sensor_id;sensor_type;location;lat;lon;timestamp;P1;durP1;ratioP1;P2;durP2;ratioP2
26953;SDS011;14508;50.924;11.600;2024-03-22T00:01:55;13.40;;;5.00;;
26953;SDS011;14508;50.924;11.600;2024-03-22T00:04:24;15.05;;;5.18;;
26953;SDS011;14508;50.924;11.600;2024-03-22T00:06:51;11.73;;;5.03;;
26953;SDS011;14508;50.924;11.600;2024-03-22T00:09:18;10.27;;;4.43;;
26953;SDS011;14508;50.924;11.600;2024-03-22T00:11:44;12.23;;;4.40;;
26953;SDS011;14508;50.924;11.600;2024-03-22T00:14:11;12.43;;;4.63;;
26953;SDS011;14508;50.924;11.600;2024-03-22T00:16:37;12.80;;;5.05;;
26953;SDS011;14508;50.924;11.600;2024-03-22T00:19:04;8.25;;;4.13;;
26953;SDS011;14508;50.924;11.600;2024-03-22T00:21:31;9.48;;;4.00;;
26953;SDS011;14508;50.924;11.600;2024-03-22T00:23:58;9.43;;;3.90;;
26953;SDS011;14508;50.924;11.600;2024-03-22T00:26:26;7.28;;;4.25;;
26953;SDS011;14508;50.924;11.600;2024-03-22T00:28:53;10.30;;;4.10;;
26953;SDS011;14508;50.924;11.600;2024-03-22T00:31:19;9.23;;;4.30;;
26953;SDS011;14508;50.924;11.600;2024-03-22T00:33:46;14.32;;;4.38;;
26953;SDS011;14508;50.924;11.600;2024-03-22T00:36:12;10.88;;;4.75;;
26953;SDS011;14508;50.924;11.600;2024-03-22T00:38:40;8.85;;;4.97;;
26953;SDS011;14508;50.924;11.600;2024-03-22T00:41:06;9.80;;;4.22;;
26953;SDS011;14508;50.924;11.600;2024-03-22T00:43:33;10.00;;;4.30;;
26953;SDS011;14508;50.924;11.600;2024-03-22T00:45:59;8.88;;;4.97;;
26953;SDS011;14508;50.924;11.600;2024-03-22T00:48:27;9.15;;;4.68;;
26953;SDS011;14508;50.924;11.600;2024-03-22T00:50:54;8.70;;;4.55;;
26953;SDS011;14508;50.924;11.600;2024-03-22T00:53:20;13.57;;;4.65;;
26953;SDS011;14508;50.924;11.600;2024-03-22T00:55:48;8.57;;;4.18;;
26953;SDS011;14508;50.924;11.600;2024-03-22T00:58:17;8.73;;;5.07;;
26953;SDS011;14508;50.924;11.600;2024-03-22T01:00:43;11.25;;;5.22;;
26953;SDS011;14508;50.924;11.600;2024-03-22T01:03:10;11.07;;;5.20;;
26953;SDS011;14508;50.924;11.600;2024-03-22T01:05:36;10.23;;;4.88;;
26953;SDS011;14508;50.924;11.600;2024-03-22T01:08:05;10.23;;;4.70;;
26953;SDS011;14508;50.924;11.600;2024-03-22T01:10:32;13.70;;;5.07;;
26953;SDS011;14508;50.924;11.600;2024-03-22T01:13:01;11.98;;;4.95;;
26953;SDS011;14508;50.924;11.600;2024-03-22T01:15:27;10.50;;;4.20;;
26953;SDS011;14508;50.924;11.600;2024-03-22T01:17:53;10.23;;;4.35;;
26953;SDS011;14508;50.924;11.600;2024-03-22T01:20:20;9.98;;;4.30;;
26953;SDS011;14508;50.924;11.600;2024-03-22T01:22:47;8.75;;;4.50;;
26953;SDS011;14508;50.924;11.600;2024-03-22T01:25:13;8.77;;;4.57;;
26953;SDS011;14508;50.924;11.600;2024-03-22T01:27:40;11.07;;;4.80;;
26953;SDS011;14508;50.924;11.600;2024-03-22T01:30:08;12.05;;;4.30;;
26953;SDS011;14508;50.924;11.600;2024-03-22T01:32:35;9.65;;;3.80;;
26953;SDS011;14508;50.924;11.600;2024-03-22T01:35:02;8.55;;;4.50;;
26953;SDS011;14508;50.924;11.600;2024-03-22T01:37:29;7.15;;;4.28;;
26953;SDS011;14508;50.924;11.600;2024-03-22T01:39:56;12.68;;;4.30;;
26953;SDS011;14508;50.924;11.600;2024-03-22T01:42:23;8.40;;;4.75;;
26953;SDS011;14508;50.924;11.600;2024-03-22T01:44:50;8.52;;;4.20;;
26953;SDS011;14508;50.924;11.600;2024-03-22T01:47:17;12.25;;;5.43;;
26953;SDS011;14508;50.924;11.600;2024-03-22T01:49:44;8.88;;;4.78;;
26953;SDS011;14508;50.924;11.600;2024-03-22T01:52:10;12.80;;;4.45;;
26953;SDS011;14508;50.924;11.600;2024-03-22T01:54:37;6.90;;;3.63;;
26953;SDS011;14508;50.924;11.600;2024-03-22T01:57:03;13.40;;;5.32;;
26953;SDS011;14508;50.924;11.600;2024-03-22T01:59:30;8.18;;;3.63;;
26953;SDS011;14508;50.924;11.600;2024-03-22T02:01:58;10.10;;;4.38;;
26953;SDS011;14508;50.924;11.600;2024-03-22T02:04:26;12.25;;;5.15;;
26953;SDS011;14508;50.924;11.600;2024-03-22T02:06:52;11.98;;;4.75;;
26953;SDS011;14508;50.924;11.600;2024-03-22T02:09:19;14.68;;;4.47;;
26953;SDS011;14508;50.924;11.600;2024-03-22T02:11:46;10.10;;;4.43;;
26953;SDS011;14508;50.924;11.600;2024-03-22T02:14:14;14.02;;;4.47;;
26953;SDS011;14508;50.924;11.600;2024-03-22T02:16:39;10.10;;;4.97;;
26953;SDS011;14508;50.924;11.600;2024-03-22T02:19:06;10.38;;;4.22;;
26953;SDS011;14508;50.924;11.600;2024-03-22T02:21:34;7.82;;;3.78;;
26953;SDS011;14508;50.924;11.600;2024-03-22T02:24:02;8.57;;;4.05;;
26953;SDS011;14508;50.924;11.600;2024-03-22T02:26:28;11.52;;;4.95;;
26953;SDS011;14508;50.924;11.600;2024-03-22T02:28:55;9.00;;;4.40;;
26953;SDS011;14508;50.924;11.600;2024-03-22T02:31:21;16.08;;;5.05;;
26953;SDS011;14508;50.924;11.600;2024-03-22T02:33:49;9.30;;;4.60;;
26953;SDS011;14508;50.924;11.600;2024-03-22T02:36:15;9.73;;;4.93;;
26953;SDS011;14508;50.924;11.600;2024-03-22T02:38:42;8.65;;;4.43;;
26953;SDS011;14508;50.924;11.600;2024-03-22T02:41:09;10.68;;;4.82;;
26953;SDS011;14508;50.924;11.600;2024-03-22T02:43:36;7.93;;;4.38;;
26953;SDS011;14508;50.924;11.600;2024-03-22T02:46:02;7.88;;;4.45;;
26953;SDS011;14508;50.924;11.600;2024-03-22T02:48:29;7.43;;;3.95;;
26953;SDS011;14508;50.924;11.600;2024-03-22T02:50:57;12.57;;;4.13;;
26953;SDS011;14508;50.924;11.600;2024-03-22T02:53:24;8.88;;;4.78;;
26953;SDS011;14508;50.924;11.600;2024-03-22T02:55:50;7.80;;;4.40;;
26953;SDS011;14508;50.924;11.600;2024-03-22T02:58:20;10.88;;;4.07;;
26953;SDS011;14508;50.924;11.600;2024-03-22T03:00:48;7.88;;;4.25;;
26953;SDS011;14508;50.924;11.600;2024-03-22T03:03:13;6.38;;;4.10;;
26953;SDS011;14508;50.924;11.600;2024-03-22T03:05:41;9.98;;;4.78;;
26953;SDS011;14508;50.924;11.600;2024-03-22T03:08:07;7.20;;;3.78;;
26953;SDS011;14508;50.924;11.600;2024-03-22T03:10:35;9.32;;;4.30;;
26953;SDS011;14508;50.924;11.600;2024-03-22T03:13:01;9.63;;;4.95;;
26953;SDS011;14508;50.924;11.600;2024-03-22T03:15:30;8.25;;;4.65;;
26953;SDS011;14508;50.924;11.600;2024-03-22T03:17:55;9.00;;;4.85;;
26953;SDS011;14508;50.924;11.600;2024-03-22T03:20:22;11.55;;;4.80;;
26953;SDS011;14508;50.924;11.600;2024-03-22T03:22:48;10.55;;;5.45;;
26953;SDS011;14508;50.924;11.600;2024-03-22T03:25:15;9.02;;;4.47;;
26953;SDS011;14508;50.924;11.600;2024-03-22T03:27:41;8.88;;;4.38;;
26953;SDS011;14508;50.924;11.600;2024-03-22T03:30:08;9.60;;;4.55;;
26953;SDS011;14508;50.924;11.600;2024-03-22T03:32:36;13.18;;;4.57;;
26953;SDS011;14508;50.924;11.600;2024-03-22T03:35:03;10.82;;;4.30;;
26953;SDS011;14508;50.924;11.600;2024-03-22T03:37:30;12.88;;;4.60;;
26953;SDS011;14508;50.924;11.600;2024-03-22T03:39:57;11.02;;;4.45;;
26953;SDS011;14508;50.924;11.600;2024-03-22T03:42:23;9.02;;;4.18;;
26953;SDS011;14508;50.924;11.600;2024-03-22T03:44:50;8.68;;;4.45;;
26953;SDS011;14508;50.924;11.600;2024-03-22T03:47:16;10.52;;;4.97;;
26953;SDS011;14508;50.924;11.600;2024-03-22T03:49:46;7.78;;;4.38;;
26953;SDS011;14508;50.924;11.600;2024-03-22T03:52:11;8.35;;;4.75;;
26953;SDS011;14508;50.924;11.600;2024-03-22T03:54:39;10.75;;;4.70;;
26953;SDS011;14508;50.924;11.600;2024-03-22T03:57:05;13.88;;;4.40;;
26953;SDS011;14508;50.924;11.600;2024-03-22T03:59:32;9.88;;;5.05;;
26953;SDS011;14508;50.924;11.600;2024-03-22T04:01:58;8.38;;;4.30;;
26953;SDS011;14508;50.924;11.600;2024-03-22T04:04:25;12.90;;;5.20;;
26953;SDS011;14508;50.924;11.600;2024-03-22T04:06:53;7.85;;;4.45;;
26953;SDS011;14508;50.924;11.600;2024-03-22T04:09:19;10.48;;;4.20;;
26953;SDS011;14508;50.924;11.600;2024-03-22T04:11:45;11.88;;;5.03;;
26953;SDS011;14508;50.924;11.600;2024-03-22T04:14:13;7.13;;;4.82;;
26953;SDS011;14508;50.924;11.600;2024-03-22T04:16:38;7.93;;;4.28;;
26953;SDS011;14508;50.924;11.600;2024-03-22T04:19:05;10.75;;;4.53;;
26953;SDS011;14508;50.924;11.600;2024-03-22T04:21:31;7.82;;;3.88;;
26953;SDS011;14508;50.924;11.600;2024-03-22T04:23:59;11.38;;;4.25;;
26953;SDS011;14508;50.924;11.600;2024-03-22T04:26:25;8.93;;;4.03;;
26953;SDS011;14508;50.924;11.600;2024-03-22T04:28:52;13.82;;;4.28;;
26953;SDS011;14508;50.924;11.600;2024-03-22T04:31:18;10.02;;;4.35;;
26953;SDS011;14508;50.924;11.600;2024-03-22T04:33:45;6.53;;;4.15;;
26953;SDS011;14508;50.924;11.600;2024-03-22T04:36:11;9.68;;;4.65;;
26953;SDS011;14508;50.924;11.600;2024-03-22T04:38:38;9.30;;;4.63;;
26953;SDS011;14508;50.924;11.600;2024-03-22T04:41:06;10.15;;;5.30;;
26953;SDS011;14508;50.924;11.600;2024-03-22T04:43:33;7.10;;;3.80;;
26953;SDS011;14508;50.924;11.600;2024-03-22T04:46:00;8.85;;;4.07;;
26953;SDS011;14508;50.924;11.600;2024-03-22T04:48:27;13.15;;;5.18;;
26953;SDS011;14508;50.924;11.600;2024-03-22T04:50:52;12.70;;;5.05;;
26953;SDS011;14508;50.924;11.600;2024-03-22T04:53:20;12.27;;;5.18;;
26953;SDS011;14508;50.924;11.600;2024-03-22T04:55:46;9.65;;;4.93;;
26953;SDS011;14508;50.924;11.600;2024-03-22T04:58:15;9.35;;;5.20;;
26953;SDS011;14508;50.924;11.600;2024-03-22T05:00:42;10.77;;;5.13;;
26953;SDS011;14508;50.924;11.600;2024-03-22T05:03:09;10.48;;;5.13;;
26953;SDS011;14508;50.924;11.600;2024-03-22T05:05:36;8.63;;;4.38;;
26953;SDS011;14508;50.924;11.600;2024-03-22T05:08:04;8.18;;;4.20;;
26953;SDS011;14508;50.924;11.600;2024-03-22T05:10:30;16.33;;;5.57;;
26953;SDS011;14508;50.924;11.600;2024-03-22T05:12:57;6.35;;;4.07;;
26953;SDS011;14508;50.924;11.600;2024-03-22T05:15:25;8.18;;;4.47;;
26953;SDS011;14508;50.924;11.600;2024-03-22T05:17:52;9.25;;;4.32;;
26953;SDS011;14508;50.924;11.600;2024-03-22T05:20:18;15.20;;;4.93;;
26953;SDS011;14508;50.924;11.600;2024-03-22T05:22:46;10.25;;;4.13;;
26953;SDS011;14508;50.924;11.600;2024-03-22T05:25:12;13.85;;;4.95;;
26953;SDS011;14508;50.924;11.600;2024-03-22T05:27:40;14.05;;;5.20;;
26953;SDS011;14508;50.924;11.600;2024-03-22T05:30:07;11.05;;;4.82;;
26953;SDS011;14508;50.924;11.600;2024-03-22T05:32:36;10.80;;;4.80;;
26953;SDS011;14508;50.924;11.600;2024-03-22T05:35:03;12.35;;;5.05;;
26953;SDS011;14508;50.924;11.600;2024-03-22T05:37:30;9.52;;;4.40;;
26953;SDS011;14508;50.924;11.600;2024-03-22T05:39:56;10.23;;;4.50;;
26953;SDS011;14508;50.924;11.600;2024-03-22T05:42:24;17.40;;;5.25;;
26953;SDS011;14508;50.924;11.600;2024-03-22T05:44:50;12.18;;;4.70;;
26953;SDS011;14508;50.924;11.600;2024-03-22T05:47:17;9.55;;;4.70;;
26953;SDS011;14508;50.924;11.600;2024-03-22T05:49:45;11.35;;;4.00;;
26953;SDS011;14508;50.924;11.600;2024-03-22T05:52:12;12.00;;;4.32;;
26953;SDS011;14508;50.924;11.600;2024-03-22T05:54:39;12.05;;;4.43;;
26953;SDS011;14508;50.924;11.600;2024-03-22T05:57:05;10.88;;;4.50;;
26953;SDS011;14508;50.924;11.600;2024-03-22T05:59:33;9.02;;;3.97;;
26953;SDS011;14508;50.924;11.600;2024-03-22T06:01:59;12.55;;;4.38;;
26953;SDS011;14508;50.924;11.600;2024-03-22T06:04:26;11.82;;;4.30;;
26953;SDS011;14508;50.924;11.600;2024-03-22T06:06:53;18.90;;;5.10;;
26953;SDS011;14508;50.924;11.600;2024-03-22T06:09:20;13.88;;;4.40;;
26953;SDS011;14508;50.924;11.600;2024-03-22T06:11:49;11.75;;;4.78;;
26953;SDS011;14508;50.924;11.600;2024-03-22T06:14:16;12.32;;;5.03;;
26953;SDS011;14508;50.924;11.600;2024-03-22T06:16:42;7.63;;;4.93;;
26953;SDS011;14508;50.924;11.600;2024-03-22T06:19:09;11.73;;;4.53;;
26953;SDS011;14508;50.924;11.600;2024-03-22T06:21:35;12.80;;;4.47;;
26953;SDS011;14508;50.924;11.600;2024-03-22T06:24:04;14.90;;;4.35;;
26953;SDS011;14508;50.924;11.600;2024-03-22T06:26:30;13.40;;;4.75;;
26953;SDS011;14508;50.924;11.600;2024-03-22T06:28:57;14.75;;;5.03;;
26953;SDS011;14508;50.924;11.600;2024-03-22T06:31:23;12.80;;;4.63;;
26953;SDS011;14508;50.924;11.600;2024-03-22T06:33:50;13.45;;;4.80;;
26953;SDS011;14508;50.924;11.600;2024-03-22T06:36:18;11.43;;;5.35;;
26953;SDS011;14508;50.924;11.600;2024-03-22T06:38:47;12.48;;;4.63;;
26953;SDS011;14508;50.924;11.600;2024-03-22T06:41:14;10.07;;;4.57;;
26953;SDS011;14508;50.924;11.600;2024-03-22T06:43:41;16.60;;;5.78;;
26953;SDS011;14508;50.924;11.600;2024-03-22T06:46:08;10.13;;;5.00;;
26953;SDS011;14508;50.924;11.600;2024-03-22T06:48:34;13.65;;;5.78;;
26953;SDS011;14508;50.924;11.600;2024-03-22T06:51:00;8.65;;;5.03;;
26953;SDS011;14508;50.924;11.600;2024-03-22T06:53:28;9.55;;;4.32;;
26953;SDS011;14508;50.924;11.600;2024-03-22T06:55:53;7.97;;;4.38;;
26953;SDS011;14508;50.924;11.600;2024-03-22T06:58:22;10.93;;;4.82;;
26953;SDS011;14508;50.924;11.600;2024-03-22T07:00:49;11.07;;;5.00;;
26953;SDS011;14508;50.924;11.600;2024-03-22T07:03:16;13.77;;;5.38;;
26953;SDS011;14508;50.924;11.600;2024-03-22T07:05:42;13.05;;;5.22;;
26953;SDS011;14508;50.924;11.600;2024-03-22T07:08:09;12.25;;;5.32;;
26953;SDS011;14508;50.924;11.600;2024-03-22T07:10:38;12.25;;;5.38;;
26953;SDS011;14508;50.924;11.600;2024-03-22T07:13:05;10.52;;;4.85;;
26953;SDS011;14508;50.924;11.600;2024-03-22T07:15:32;13.65;;;4.80;;
26953;SDS011;14508;50.924;11.600;2024-03-22T07:17:59;11.13;;;4.78;;
26953;SDS011;14508;50.924;11.600;2024-03-22T07:20:25;18.65;;;5.57;;
26953;SDS011;14508;50.924;11.600;2024-03-22T07:22:52;12.27;;;5.10;;
26953;SDS011;14508;50.924;11.600;2024-03-22T07:25:18;9.23;;;4.57;;
26953;SDS011;14508;50.924;11.600;2024-03-22T07:27:45;9.63;;;4.25;;
26953;SDS011;14508;50.924;11.600;2024-03-22T07:30:11;12.35;;;5.20;;
26953;SDS011;14508;50.924;11.600;2024-03-22T07:32:40;15.10;;;5.70;;
26953;SDS011;14508;50.924;11.600;2024-03-22T07:35:06;17.38;;;4.93;;
26953;SDS011;14508;50.924;11.600;2024-03-22T07:37:33;12.65;;;5.20;;
26953;SDS011;14508;50.924;11.600;2024-03-22T07:39:59;11.25;;;5.43;;
26953;SDS011;14508;50.924;11.600;2024-03-22T07:42:26;13.68;;;4.78;;
26953;SDS011;14508;50.924;11.600;2024-03-22T07:44:52;11.15;;;5.60;;
26953;SDS011;14508;50.924;11.600;2024-03-22T07:47:19;14.32;;;5.72;;
26953;SDS011;14508;50.924;11.600;2024-03-22T07:49:46;17.05;;;6.18;;
26953;SDS011;14508;50.924;11.600;2024-03-22T07:52:13;10.10;;;5.43;;
26953;SDS011;14508;50.924;11.600;2024-03-22T07:54:39;11.73;;;5.63;;
26953;SDS011;14508;50.924;11.600;2024-03-22T07:57:06;16.25;;;5.80;;
26953;SDS011;14508;50.924;11.600;2024-03-22T07:59:32;17.55;;;5.57;;
26953;SDS011;14508;50.924;11.600;2024-03-22T08:01:59;12.68;;;6.03;;
26953;SDS011;14508;50.924;11.600;2024-03-22T08:04:27;15.68;;;6.35;;
26953;SDS011;14508;50.924;11.600;2024-03-22T08:06:55;16.95;;;6.18;;
26953;SDS011;14508;50.924;11.600;2024-03-22T08:09:21;18.20;;;6.47;;
26953;SDS011;14508;50.924;11.600;2024-03-22T08:11:48;14.60;;;6.53;;
26953;SDS011;14508;50.924;11.600;2024-03-22T08:14:13;14.80;;;6.05;;
26953;SDS011;14508;50.924;11.600;2024-03-22T08:16:41;16.92;;;6.45;;
26953;SDS011;14508;50.924;11.600;2024-03-22T08:19:07;14.98;;;6.10;;
26953;SDS011;14508;50.924;11.600;2024-03-22T08:21:34;23.58;;;7.60;;
26953;SDS011;14508;50.924;11.600;2024-03-22T08:24:03;17.42;;;6.80;;
26953;SDS011;14508;50.924;11.600;2024-03-22T08:26:31;15.38;;;6.18;;
26953;SDS011;14508;50.924;11.600;2024-03-22T08:28:57;20.10;;;7.72;;
26953;SDS011;14508;50.924;11.600;2024-03-22T08:31:24;25.23;;;8.30;;
26953;SDS011;14508;50.924;11.600;2024-03-22T08:33:51;28.02;;;8.68;;
26953;SDS011;14508;50.924;11.600;2024-03-22T08:36:18;23.10;;;8.23;;
26953;SDS011;14508;50.924;11.600;2024-03-22T08:38:44;23.38;;;8.93;;
26953;SDS011;14508;50.924;11.600;2024-03-22T08:41:12;19.30;;;8.57;;
26953;SDS011;14508;50.924;11.600;2024-03-22T08:43:38;18.65;;;7.85;;
26953;SDS011;14508;50.924;11.600;2024-03-22T08:46:05;19.00;;;8.65;;
26953;SDS011;14508;50.924;11.600;2024-03-22T08:48:31;20.75;;;8.05;;
26953;SDS011;14508;50.924;11.600;2024-03-22T08:50:58;21.35;;;8.60;;
26953;SDS011;14508;50.924;11.600;2024-03-22T08:53:24;22.00;;;8.52;;
26953;SDS011;14508;50.924;11.600;2024-03-22T08:55:51;26.30;;;8.25;;
26953;SDS011;14508;50.924;11.600;2024-03-22T08:58:19;21.73;;;7.68;;
26953;SDS011;14508;50.924;11.600;2024-03-22T09:00:46;25.00;;;8.07;;
26953;SDS011;14508;50.924;11.600;2024-03-22T09:03:12;26.08;;;8.00;;
26953;SDS011;14508;50.924;11.600;2024-03-22T09:05:40;22.48;;;8.43;;
26953;SDS011;14508;50.924;11.600;2024-03-22T09:08:06;22.13;;;9.32;;
26953;SDS011;14508;50.924;11.600;2024-03-22T09:10:34;20.55;;;8.80;;
26953;SDS011;14508;50.924;11.600;2024-03-22T09:13:00;17.40;;;7.85;;
26953;SDS011;14508;50.924;11.600;2024-03-22T09:15:28;20.27;;;8.05;;
26953;SDS011;14508;50.924;11.600;2024-03-22T09:17:54;19.55;;;7.85;;
26953;SDS011;14508;50.924;11.600;2024-03-22T09:20:21;19.35;;;7.35;;
26953;SDS011;14508;50.924;11.600;2024-03-22T09:22:48;18.77;;;7.50;;
26953;SDS011;14508;50.924;11.600;2024-03-22T09:25:15;18.52;;;7.38;;
26953;SDS011;14508;50.924;11.600;2024-03-22T09:27:41;20.00;;;7.85;;
26953;SDS011;14508;50.924;11.600;2024-03-22T09:30:08;24.15;;;7.80;;
26953;SDS011;14508;50.924;11.600;2024-03-22T09:32:36;19.95;;;7.90;;
26953;SDS011;14508;50.924;11.600;2024-03-22T09:35:03;20.35;;;7.78;;
26953;SDS011;14508;50.924;11.600;2024-03-22T09:37:30;19.52;;;7.70;;
26953;SDS011;14508;50.924;11.600;2024-03-22T09:39:58;18.55;;;8.23;;
26953;SDS011;14508;50.924;11.600;2024-03-22T09:42:24;20.55;;;7.45;;
26953;SDS011;14508;50.924;11.600;2024-03-22T09:44:52;20.92;;;7.95;;
26953;SDS011;14508;50.924;11.600;2024-03-22T09:47:18;16.98;;;7.03;;
26953;SDS011;14508;50.924;11.600;2024-03-22T09:49:47;18.75;;;7.72;;
26953;SDS011;14508;50.924;11.600;2024-03-22T09:52:15;17.33;;;7.45;;
26953;SDS011;14508;50.924;11.600;2024-03-22T09:54:44;19.95;;;7.20;;
26953;SDS011;14508;50.924;11.600;2024-03-22T09:57:11;21.85;;;9.60;;
26953;SDS011;14508;50.924;11.600;2024-03-22T09:59:41;16.83;;;7.10;;
26953;SDS011;14508;50.924;11.600;2024-03-22T10:02:08;20.30;;;8.07;;
26953;SDS011;14508;50.924;11.600;2024-03-22T10:04:38;21.08;;;7.38;;
26953;SDS011;14508;50.924;11.600;2024-03-22T10:07:05;17.98;;;7.50;;
26953;SDS011;14508;50.924;11.600;2024-03-22T10:09:33;19.42;;;6.88;;
26953;SDS011;14508;50.924;11.600;2024-03-22T10:11:59;15.23;;;6.57;;
26953;SDS011;14508;50.924;11.600;2024-03-22T10:14:26;14.50;;;6.38;;
26953;SDS011;14508;50.924;11.600;2024-03-22T10:16:52;17.17;;;7.55;;
26953;SDS011;14508;50.924;11.600;2024-03-22T10:19:19;16.08;;;6.85;;
26953;SDS011;14508;50.924;11.600;2024-03-22T10:21:46;18.80;;;7.15;;
26953;SDS011;14508;50.924;11.600;2024-03-22T10:24:15;18.83;;;7.13;;
26953;SDS011;14508;50.924;11.600;2024-03-22T10:26:41;20.67;;;7.60;;
26953;SDS011;14508;50.924;11.600;2024-03-22T10:29:10;14.75;;;6.15;;
26953;SDS011;14508;50.924;11.600;2024-03-22T10:31:37;17.75;;;7.25;;
26953;SDS011;14508;50.924;11.600;2024-03-22T10:34:05;13.95;;;6.20;;
26953;SDS011;14508;50.924;11.600;2024-03-22T10:36:33;21.50;;;7.45;;
26953;SDS011;14508;50.924;11.600;2024-03-22T10:39:01;16.13;;;7.68;;
26953;SDS011;14508;50.924;11.600;2024-03-22T10:41:30;19.45;;;8.00;;
26953;SDS011;14508;50.924;11.600;2024-03-22T10:43:57;15.30;;;6.90;;
26953;SDS011;14508;50.924;11.600;2024-03-22T10:46:25;18.17;;;8.00;;
26953;SDS011;14508;50.924;11.600;2024-03-22T10:48:56;19.38;;;8.63;;
26953;SDS011;14508;50.924;11.600;2024-03-22T10:51:22;15.98;;;7.50;;
26953;SDS011;14508;50.924;11.600;2024-03-22T10:53:50;19.38;;;8.23;;
26953;SDS011;14508;50.924;11.600;2024-03-22T10:56:21;23.38;;;8.20;;
26953;SDS011;14508;50.924;11.600;2024-03-22T10:58:50;18.25;;;9.10;;
26953;SDS011;14508;50.924;11.600;2024-03-22T11:01:21;20.27;;;9.05;;
26953;SDS011;14508;50.924;11.600;2024-03-22T11:03:49;17.85;;;8.20;;
26953;SDS011;14508;50.924;11.600;2024-03-22T11:06:17;22.83;;;8.35;;
26953;SDS011;14508;50.924;11.600;2024-03-22T11:08:49;19.98;;;8.38;;
26953;SDS011;14508;50.924;11.600;2024-03-22T11:11:17;19.20;;;9.35;;
26953;SDS011;14508;50.924;11.600;2024-03-22T11:13:46;20.42;;;9.25;;
26953;SDS011;14508;50.924;11.600;2024-03-22T11:16:15;22.27;;;9.82;;
26953;SDS011;14508;50.924;11.600;2024-03-22T11:18:42;21.80;;;8.98;;
26953;SDS011;14508;50.924;11.600;2024-03-22T11:21:08;17.88;;;8.23;;
26953;SDS011;14508;50.924;11.600;2024-03-22T11:23:35;19.10;;;8.90;;
26953;SDS011;14508;50.924;11.600;2024-03-22T11:26:02;18.40;;;8.18;;
26953;SDS011;14508;50.924;11.600;2024-03-22T11:28:29;16.92;;;7.82;;
26953;SDS011;14508;50.924;11.600;2024-03-22T11:30:55;15.93;;;8.02;;
26953;SDS011;14508;50.924;11.600;2024-03-22T11:33:24;17.80;;;8.93;;
26953;SDS011;14508;50.924;11.600;2024-03-22T11:35:52;18.42;;;8.93;;
26953;SDS011;14508;50.924;11.600;2024-03-22T11:38:19;21.75;;;9.73;;
26953;SDS011;14508;50.924;11.600;2024-03-22T11:40:45;20.02;;;8.45;;
26953;SDS011;14508;50.924;11.600;2024-03-22T11:43:13;17.50;;;8.95;;
26953;SDS011;14508;50.924;11.600;2024-03-22T11:45:42;17.20;;;8.60;;
26953;SDS011;14508;50.924;11.600;2024-03-22T11:48:09;21.42;;;9.10;;
26953;SDS011;14508;50.924;11.600;2024-03-22T11:50:37;20.17;;;10.27;;
26953;SDS011;14508;50.924;11.600;2024-03-22T11:53:05;17.38;;;8.70;;
26953;SDS011;14508;50.924;11.600;2024-03-22T11:55:31;24.60;;;9.60;;
26953;SDS011;14508;50.924;11.600;2024-03-22T11:57:58;17.90;;;9.02;;
26953;SDS011;14508;50.924;11.600;2024-03-22T12:00:24;19.27;;;9.90;;
26953;SDS011;14508;50.924;11.600;2024-03-22T12:02:52;22.25;;;9.13;;
26953;SDS011;14508;50.924;11.600;2024-03-22T12:05:19;24.88;;;8.75;;
26953;SDS011;14508;50.924;11.600;2024-03-22T12:07:50;22.67;;;9.25;;
26953;SDS011;14508;50.924;11.600;2024-03-22T12:10:17;22.23;;;8.80;;
26953;SDS011;14508;50.924;11.600;2024-03-22T12:12:43;26.13;;;9.77;;
26953;SDS011;14508;50.924;11.600;2024-03-22T12:15:10;17.50;;;9.10;;
26953;SDS011;14508;50.924;11.600;2024-03-22T12:17:36;20.75;;;10.48;;
26953;SDS011;14508;50.924;11.600;2024-03-22T12:20:08;22.33;;;10.52;;
26953;SDS011;14508;50.924;11.600;2024-03-22T12:22:35;19.45;;;10.55;;
26953;SDS011;14508;50.924;11.600;2024-03-22T12:25:03;22.42;;;10.15;;
26953;SDS011;14508;50.924;11.600;2024-03-22T12:27:31;23.77;;;9.88;;
26953;SDS011;14508;50.924;11.600;2024-03-22T12:29:57;17.95;;;9.30;;
26953;SDS011;14508;50.924;11.600;2024-03-22T12:32:25;20.88;;;10.88;;
26953;SDS011;14508;50.924;11.600;2024-03-22T12:34:50;22.50;;;10.63;;
26953;SDS011;14508;50.924;11.600;2024-03-22T12:37:17;22.80;;;10.75;;
26953;SDS011;14508;50.924;11.600;2024-03-22T12:39:43;23.77;;;9.25;;
26953;SDS011;14508;50.924;11.600;2024-03-22T12:42:12;25.85;;;10.05;;
26953;SDS011;14508;50.924;11.600;2024-03-22T12:44:38;16.83;;;8.90;;
26953;SDS011;14508;50.924;11.600;2024-03-22T12:47:05;22.85;;;9.23;;
26953;SDS011;14508;50.924;11.600;2024-03-22T12:49:31;22.33;;;11.27;;
26953;SDS011;14508;50.924;11.600;2024-03-22T12:51:58;20.40;;;7.78;;
26953;SDS011;14508;50.924;11.600;2024-03-22T12:54:24;17.77;;;8.55;;
26953;SDS011;14508;50.924;11.600;2024-03-22T12:56:52;19.75;;;7.47;;
26953;SDS011;14508;50.924;11.600;2024-03-22T12:59:20;15.95;;;7.70;;
26953;SDS011;14508;50.924;11.600;2024-03-22T13:01:47;17.15;;;7.97;;
26953;SDS011;14508;50.924;11.600;2024-03-22T13:04:14;17.00;;;7.95;;
26953;SDS011;14508;50.924;11.600;2024-03-22T13:06:43;17.23;;;7.68;;
26953;SDS011;14508;50.924;11.600;2024-03-22T13:09:09;14.23;;;7.22;;
26953;SDS011;14508;50.924;11.600;2024-03-22T13:11:35;11.60;;;6.13;;
26953;SDS011;14508;50.924;11.600;2024-03-22T13:14:02;16.83;;;6.47;;
26953;SDS011;14508;50.924;11.600;2024-03-22T13:16:30;16.98;;;6.82;;
26953;SDS011;14508;50.924;11.600;2024-03-22T13:18:56;11.85;;;5.90;;
26953;SDS011;14508;50.924;11.600;2024-03-22T13:21:23;17.40;;;6.90;;
26953;SDS011;14508;50.924;11.600;2024-03-22T13:23:50;16.90;;;5.90;;
26953;SDS011;14508;50.924;11.600;2024-03-22T13:26:17;15.20;;;6.80;;
26953;SDS011;14508;50.924;11.600;2024-03-22T13:28:43;14.63;;;5.65;;
26953;SDS011;14508;50.924;11.600;2024-03-22T13:31:10;14.90;;;6.07;;
26953;SDS011;14508;50.924;11.600;2024-03-22T13:33:37;15.07;;;6.15;;
26953;SDS011;14508;50.924;11.600;2024-03-22T13:36:04;11.52;;;5.82;;
26953;SDS011;14508;50.924;11.600;2024-03-22T13:38:30;13.90;;;6.15;;
26953;SDS011;14508;50.924;11.600;2024-03-22T13:40:58;9.40;;;5.13;;
26953;SDS011;14508;50.924;11.600;2024-03-22T13:43:25;11.15;;;6.50;;
26953;SDS011;14508;50.924;11.600;2024-03-22T13:45:53;10.75;;;5.72;;
26953;SDS011;14508;50.924;11.600;2024-03-22T13:48:20;17.83;;;6.03;;
26953;SDS011;14508;50.924;11.600;2024-03-22T13:50:52;11.80;;;5.65;;
26953;SDS011;14508;50.924;11.600;2024-03-22T13:53:19;14.40;;;6.45;;
26953;SDS011;14508;50.924;11.600;2024-03-22T13:55:47;14.30;;;7.03;;
26953;SDS011;14508;50.924;11.600;2024-03-22T13:58:13;15.82;;;6.68;;
26953;SDS011;14508;50.924;11.600;2024-03-22T14:00:40;12.15;;;6.65;;
26953;SDS011;14508;50.924;11.600;2024-03-22T14:03:06;12.30;;;6.10;;
26953;SDS011;14508;50.924;11.600;2024-03-22T14:05:33;12.85;;;6.53;;
26953;SDS011;14508;50.924;11.600;2024-03-22T14:08:00;12.75;;;6.22;;
26953;SDS011;14508;50.924;11.600;2024-03-22T14:10:29;12.27;;;6.50;;
26953;SDS011;14508;50.924;11.600;2024-03-22T14:12:56;21.45;;;7.60;;
26953;SDS011;14508;50.924;11.600;2024-03-22T14:15:23;13.20;;;7.30;;
26953;SDS011;14508;50.924;11.600;2024-03-22T14:17:51;11.32;;;6.80;;
26953;SDS011;14508;50.924;11.600;2024-03-22T14:20:18;18.98;;;6.53;;
26953;SDS011;14508;50.924;11.600;2024-03-22T14:22:45;17.27;;;7.28;;